sensor_id;sensor_type;location;lat;lon;timestamp;temperature;humidity
4429;DHT22;2227;47.810;8.810;2023-04-03T03:47:12;5.20;99.90
4429;DHT22;2227;47.810;8.810;2023-04-03T03:49:39;5.00;99.90
4429;DHT22;2227;47.810;8.810;2023-04-03T03:52:07;5.00;99.90
4429;DHT22;2227;47.810;8.810;2023-04-03T03:54:37;5.10;99.90
4429;DHT22;2227;47.810;8.810;2023-04-03T03:57:04;5.20;99.90
4429;DHT22;2227;47.810;8.810;2023-04-03T03:59:31;5.00;99.90
4429;DHT22;2227;47.810;8.810;2023-04-03T04:01:58;5.00;99.90
4429;DHT22;2227;47.810;8.810;2023-04-03T04:04:25;5.30;99.90
4429;DHT22;2227;47.810;8.810;2023-04-03T04:06:51;5.30;99.90
4429;DHT22;2227;47.810;8.810;2023-04-03T04:09:18;5.20;99.90
4429;DHT22;2227;47.810;8.810;2023-04-03T04:11:45;5.40;99.90
4429;DHT22;2227;47.810;8.810;2023-04-03T04:14:11;5.40;99.90
4429;DHT22;2227;47.810;8.810;2023-04-03T04:16:39;5.40;99.90
4429;DHT22;2227;47.810;8.810;2023-04-03T04:19:06;5.50;99.90
4429;DHT22;2227;47.810;8.810;2023-04-03T04:21:35;5.40;99.90
4429;DHT22;2227;47.810;8.810;2023-04-03T04:24:02;5.40;99.90
4429;DHT22;2227;47.810;8.810;2023-04-03T04:26:29;5.30;99.90
4429;DHT22;2227;47.810;8.810;2023-04-03T04:28:55;5.20;99.90
4429;DHT22;2227;47.810;8.810;2023-04-03T04:31:22;5.20;99.90
4429;DHT22;2227;47.810;8.810;2023-04-03T04:33:49;5.30;99.90
4429;DHT22;2227;47.810;8.810;2023-04-03T04:36:16;5.40;99.90
4429;DHT22;2227;47.810;8.810;2023-04-03T04:38:43;5.10;99.90
4429;DHT22;2227;47.810;8.810;2023-04-03T04:41:10;5.00;99.90
4429;DHT22;2227;47.810;8.810;2023-04-03T04:43:37;4.80;99.90
4429;DHT22;2227;47.810;8.810;2023-04-03T04:46:08;4.80;99.90
4429;DHT22;2227;47.810;8.810;2023-04-03T04:48:36;4.50;99.90
4429;DHT22;2227;47.810;8.810;2023-04-03T04:51:03;4.40;99.90
4429;DHT22;2227;47.810;8.810;2023-04-03T04:53:29;4.40;99.90
4429;DHT22;2227;47.810;8.810;2023-04-03T04:55:56;4.50;99.90
4429;DHT22;2227;47.810;8.810;2023-04-03T04:58:23;4.30;99.90
4429;DHT22;2227;47.810;8.810;2023-04-03T05:00:50;4.20;99.90
4429;DHT22;2227;47.810;8.810;2023-04-03T05:03:16;4.30;99.90
4429;DHT22;2227;47.810;8.810;2023-04-03T05:05:43;4.30;99.90
4429;DHT22;2227;47.810;8.810;2023-04-03T05:08:10;4.50;99.90
4429;DHT22;2227;47.810;8.810;2023-04-03T05:10:37;4.40;99.90
4429;DHT22;2227;47.810;8.810;2023-04-03T05:13:03;4.40;99.90
4429;DHT22;2227;47.810;8.810;2023-04-03T05:15:30;4.60;99.90
4429;DHT22;2227;47.810;8.810;2023-04-03T05:17:57;4.70;99.90
4429;DHT22;2227;47.810;8.810;2023-04-03T05:20:23;4.70;99.90
4429;DHT22;2227;47.810;8.810;2023-04-03T05:22:50;4.60;99.90
4429;DHT22;2227;47.810;8.810;2023-04-03T05:25:17;4.50;99.90
4429;DHT22;2227;47.810;8.810;2023-04-03T05:27:44;4.40;99.90
4429;DHT22;2227;47.810;8.810;2023-04-03T05:30:11;4.40;99.90
4429;DHT22;2227;47.810;8.810;2023-04-03T05:32:38;4.40;99.90
4429;DHT22;2227;47.810;8.810;2023-04-03T05:35:08;4.40;99.90
4429;DHT22;2227;47.810;8.810;2023-04-03T05:37:35;4.50;99.90
4429;DHT22;2227;47.810;8.810;2023-04-03T05:40:04;4.70;99.90
4429;DHT22;2227;47.810;8.810;2023-04-03T05:42:31;4.50;99.90
4429;DHT22;2227;47.810;8.810;2023-04-03T05:44:58;4.60;99.90
4429;DHT22;2227;47.810;8.810;2023-04-03T05:47:25;4.40;99.90
4429;DHT22;2227;47.810;8.810;2023-04-03T05:49:52;3.90;99.90
4429;DHT22;2227;47.810;8.810;2023-04-03T05:52:30;4.10;99.90
4429;DHT22;2227;47.810;8.810;2023-04-03T05:54:57;4.40;99.90
4429;DHT22;2227;47.810;8.810;2023-04-03T05:57:24;4.60;99.90
4429;DHT22;2227;47.810;8.810;2023-04-03T05:59:51;4.60;99.90
4429;DHT22;2227;47.810;8.810;2023-04-03T06:02:21;4.70;99.90
4429;DHT22;2227;47.810;8.810;2023-04-03T06:04:48;4.70;99.90
4429;DHT22;2227;47.810;8.810;2023-04-03T06:07:17;4.70;99.90
4429;DHT22;2227;47.810;8.810;2023-04-03T06:09:45;4.80;99.90
4429;DHT22;2227;47.810;8.810;2023-04-03T06:12:13;4.70;99.90
4429;DHT22;2227;47.810;8.810;2023-04-03T06:14:39;4.80;99.90
4429;DHT22;2227;47.810;8.810;2023-04-03T06:17:06;4.90;99.90
4429;DHT22;2227;47.810;8.810;2023-04-03T06:19:35;5.20;99.90
4429;DHT22;2227;47.810;8.810;2023-04-03T06:22:02;5.30;99.90
4429;DHT22;2227;47.810;8.810;2023-04-03T06:24:30;4.80;99.90
4429;DHT22;2227;47.810;8.810;2023-04-03T06:26:57;4.80;99.90
4429;DHT22;2227;47.810;8.810;2023-04-03T06:29:24;4.90;99.90
4429;DHT22;2227;47.810;8.810;2023-04-03T06:31:51;5.20;99.90
4429;DHT22;2227;47.810;8.810;2023-04-03T06:34:18;5.20;99.90
4429;DHT22;2227;47.810;8.810;2023-04-03T06:36:45;5.20;99.90
4429;DHT22;2227;47.810;8.810;2023-04-03T06:39:20;5.30;99.90
4429;DHT22;2227;47.810;8.810;2023-04-03T06:41:49;5.40;99.90
4429;DHT22;2227;47.810;8.810;2023-04-03T06:44:17;5.60;99.90
4429;DHT22;2227;47.810;8.810;2023-04-03T06:46:44;5.40;99.90
4429;DHT22;2227;47.810;8.810;2023-04-03T06:49:12;5.60;99.90
4429;DHT22;2227;47.810;8.810;2023-04-03T06:51:39;5.80;99.90
4429;DHT22;2227;47.810;8.810;2023-04-03T06:54:06;6.00;99.90
4429;DHT22;2227;47.810;8.810;2023-04-03T06:56:35;6.10;99.90
4429;DHT22;2227;47.810;8.810;2023-04-03T06:59:02;5.90;99.90
4429;DHT22;2227;47.810;8.810;2023-04-03T07:01:30;6.00;99.90
4429;DHT22;2227;47.810;8.810;2023-04-03T07:03:57;6.30;99.90
4429;DHT22;2227;47.810;8.810;2023-04-03T07:06:24;6.40;99.90
4429;DHT22;2227;47.810;8.810;2023-04-03T07:08:54;6.50;99.90
4429;DHT22;2227;47.810;8.810;2023-04-03T07:11:21;6.60;99.90
4429;DHT22;2227;47.810;8.810;2023-04-03T07:13:49;6.70;99.90
4429;DHT22;2227;47.810;8.810;2023-04-03T07:16:16;6.70;99.90
4429;DHT22;2227;47.810;8.810;2023-04-03T07:18:42;6.80;99.90
4429;DHT22;2227;47.810;8.810;2023-04-03T07:21:09;7.00;99.90
4429;DHT22;2227;47.810;8.810;2023-04-03T07:23:36;7.10;99.90
4429;DHT22;2227;47.810;8.810;2023-04-03T07:26:03;7.10;99.90
4429;DHT22;2227;47.810;8.810;2023-04-03T07:28:30;7.00;99.90
4429;DHT22;2227;47.810;8.810;2023-04-03T07:31:08;7.10;99.90
4429;DHT22;2227;47.810;8.810;2023-04-03T07:33:38;7.10;99.90
4429;DHT22;2227;47.810;8.810;2023-04-03T07:36:06;7.30;99.90
4429;DHT22;2227;47.810;8.810;2023-04-03T07:38:34;7.50;99.90
4429;DHT22;2227;47.810;8.810;2023-04-03T07:41:02;7.20;99.90
4429;DHT22;2227;47.810;8.810;2023-04-03T07:43:29;6.80;99.90
4429;DHT22;2227;47.810;8.810;2023-04-03T07:45:56;6.70;99.90
4429;DHT22;2227;47.810;8.810;2023-04-03T07:48:25;7.00;99.90
4429;DHT22;2227;47.810;8.810;2023-04-03T07:50:52;6.90;99.90
4429;DHT22;2227;47.810;8.810;2023-04-03T07:53:19;6.80;99.90
4429;DHT22;2227;47.810;8.810;2023-04-03T07:55:47;6.80;99.90
4429;DHT22;2227;47.810;8.810;2023-04-03T07:58:17;6.80;99.90
4429;DHT22;2227;47.810;8.810;2023-04-03T08:00:45;6.80;99.90
4429;DHT22;2227;47.810;8.810;2023-04-03T08:03:12;6.70;99.90
4429;DHT22;2227;47.810;8.810;2023-04-03T08:05:44;6.90;99.90
4429;DHT22;2227;47.810;8.810;2023-04-03T08:08:14;7.30;99.90
4429;DHT22;2227;47.810;8.810;2023-04-03T08:10:41;7.60;99.90
4429;DHT22;2227;47.810;8.810;2023-04-03T08:13:09;7.60;99.90
4429;DHT22;2227;47.810;8.810;2023-04-03T08:15:36;7.60;99.90
4429;DHT22;2227;47.810;8.810;2023-04-03T08:18:03;7.60;99.90
4429;DHT22;2227;47.810;8.810;2023-04-03T08:20:30;7.70;99.90
4429;DHT22;2227;47.810;8.810;2023-04-03T08:22:57;7.80;99.90
4429;DHT22;2227;47.810;8.810;2023-04-03T08:25:24;7.70;99.90
4429;DHT22;2227;47.810;8.810;2023-04-03T08:27:51;7.70;99.90
4429;DHT22;2227;47.810;8.810;2023-04-03T08:30:17;7.70;99.90
4429;DHT22;2227;47.810;8.810;2023-04-03T08:32:44;7.90;99.90
4429;DHT22;2227;47.810;8.810;2023-04-03T08:35:11;8.00;99.90
4429;DHT22;2227;47.810;8.810;2023-04-03T08:37:39;8.20;99.90
4429;DHT22;2227;47.810;8.810;2023-04-03T08:40:12;8.50;99.90
4429;DHT22;2227;47.810;8.810;2023-04-03T08:48:23;8.50;99.90
4429;DHT22;2227;47.810;8.810;2023-04-03T08:51:00;8.40;99.90
4429;DHT22;2227;47.810;8.810;2023-04-03T08:53:32;8.50;99.90
4429;DHT22;2227;47.810;8.810;2023-04-03T08:56:04;8.50;99.90
4429;DHT22;2227;47.810;8.810;2023-04-03T08:58:46;8.30;99.90
4429;DHT22;2227;47.810;8.810;2023-04-03T09:01:26;8.80;99.90
4429;DHT22;2227;47.810;8.810;2023-04-03T09:03:54;8.90;99.90
4429;DHT22;2227;47.810;8.810;2023-04-03T09:06:23;8.60;99.90
4429;DHT22;2227;47.810;8.810;2023-04-03T09:14:46;8.70;99.90
4429;DHT22;2227;47.810;8.810;2023-04-03T09:22:43;8.80;99.90
4429;DHT22;2227;47.810;8.810;2023-04-03T09:25:34;8.80;99.90
4429;DHT22;2227;47.810;8.810;2023-04-03T09:28:04;8.60;99.90
4429;DHT22;2227;47.810;8.810;2023-04-03T09:30:37;8.90;99.90
4429;DHT22;2227;47.810;8.810;2023-04-03T09:33:05;9.30;99.90
4429;DHT22;2227;47.810;8.810;2023-04-03T09:35:36;9.80;99.90
4429;DHT22;2227;47.810;8.810;2023-04-03T09:38:17;10.00;99.90
4429;DHT22;2227;47.810;8.810;2023-04-03T09:41:16;10.50;99.90
4429;DHT22;2227;47.810;8.810;2023-04-03T09:43:53;11.30;99.90
4429;DHT22;2227;47.810;8.810;2023-04-03T09:46:31;12.10;98.40
4429;DHT22;2227;47.810;8.810;2023-04-03T09:49:04;12.20;97.60
4429;DHT22;2227;47.810;8.810;2023-04-03T09:51:36;12.50;96.80
4429;DHT22;2227;47.810;8.810;2023-04-03T09:54:36;12.50;96.60
4429;DHT22;2227;47.810;8.810;2023-04-03T09:57:11;12.00;96.60
4429;DHT22;2227;47.810;8.810;2023-04-03T09:59:47;11.90;97.00
4429;DHT22;2227;47.810;8.810;2023-04-03T10:04:56;11.40;96.70
4429;DHT22;2227;47.810;8.810;2023-04-03T10:07:37;11.30;96.70
4429;DHT22;2227;47.810;8.810;2023-04-03T10:10:18;11.00;97.10
4429;DHT22;2227;47.810;8.810;2023-04-03T10:12:46;11.00;95.90
4429;DHT22;2227;47.810;8.810;2023-04-03T10:15:16;11.00;96.80
4429;DHT22;2227;47.810;8.810;2023-04-03T10:17:59;10.50;96.60
4429;DHT22;2227;47.810;8.810;2023-04-03T10:20:43;9.90;97.90
4429;DHT22;2227;47.810;8.810;2023-04-03T10:23:18;9.40;99.00
4429;DHT22;2227;47.810;8.810;2023-04-03T10:42:23;8.70;99.90
4429;DHT22;2227;47.810;8.810;2023-04-03T10:45:19;9.10;99.90
4429;DHT22;2227;47.810;8.810;2023-04-03T10:50:44;8.80;99.90
4429;DHT22;2227;47.810;8.810;2023-04-03T10:56:11;9.00;99.90
4429;DHT22;2227;47.810;8.810;2023-04-03T10:58:43;8.90;99.90
4429;DHT22;2227;47.810;8.810;2023-04-03T11:01:16;9.00;99.90
4429;DHT22;2227;47.810;8.810;2023-04-03T11:03:52;9.00;99.90
4429;DHT22;2227;47.810;8.810;2023-04-03T11:06:21;9.10;99.90
4429;DHT22;2227;47.810;8.810;2023-04-03T11:11:35;8.90;99.90
4429;DHT22;2227;47.810;8.810;2023-04-03T11:14:19;8.90;99.90
4429;DHT22;2227;47.810;8.810;2023-04-03T11:16:59;8.60;99.90
4429;DHT22;2227;47.810;8.810;2023-04-03T11:20:23;8.40;99.90
4429;DHT22;2227;47.810;8.810;2023-04-03T11:22:43;8.50;99.90
4429;DHT22;2227;47.810;8.810;2023-04-03T11:27:45;8.70;99.90
4429;DHT22;2227;47.810;8.810;2023-04-03T11:33:24;8.50;99.90
4429;DHT22;2227;47.810;8.810;2023-04-03T11:35:58;8.40;99.90
4429;DHT22;2227;47.810;8.810;2023-04-03T11:38:33;8.40;99.90
4429;DHT22;2227;47.810;8.810;2023-04-03T11:41:03;8.30;99.90
4429;DHT22;2227;47.810;8.810;2023-04-03T11:43:32;8.00;99.90
4429;DHT22;2227;47.810;8.810;2023-04-03T11:46:01;8.10;99.90
4429;DHT22;2227;47.810;8.810;2023-04-03T11:50:57;8.00;99.90
4429;DHT22;2227;47.810;8.810;2023-04-03T11:53:37;8.00;99.90
4429;DHT22;2227;47.810;8.810;2023-04-03T11:56:29;8.10;99.90
4429;DHT22;2227;47.810;8.810;2023-04-03T12:01:58;8.10;99.90
4429;DHT22;2227;47.810;8.810;2023-04-03T12:04:28;8.40;99.90
4429;DHT22;2227;47.810;8.810;2023-04-03T12:07:11;8.70;99.90
4429;DHT22;2227;47.810;8.810;2023-04-03T12:12:55;8.50;99.90
4429;DHT22;2227;47.810;8.810;2023-04-03T12:18:32;8.00;99.90
4429;DHT22;2227;47.810;8.810;2023-04-03T12:21:06;7.90;99.90
4429;DHT22;2227;47.810;8.810;2023-04-03T12:23:35;8.00;99.90
4429;DHT22;2227;47.810;8.810;2023-04-03T12:28:37;7.90;99.90
4429;DHT22;2227;47.810;8.810;2023-04-03T12:31:08;8.10;99.90
4429;DHT22;2227;47.810;8.810;2023-04-03T12:34:01;8.20;99.90
4429;DHT22;2227;47.810;8.810;2023-04-03T12:42:32;8.50;99.90
4429;DHT22;2227;47.810;8.810;2023-04-03T12:45:19;8.30;99.90
4429;DHT22;2227;47.810;8.810;2023-04-03T12:47:48;8.30;99.50
4429;DHT22;2227;47.810;8.810;2023-04-03T12:50:22;8.50;99.20
4429;DHT22;2227;47.810;8.810;2023-04-03T12:53:01;8.80;99.10
4429;DHT22;2227;47.810;8.810;2023-04-03T12:55:29;8.90;97.30
4429;DHT22;2227;47.810;8.810;2023-04-03T12:57:56;9.00;96.50
4429;DHT22;2227;47.810;8.810;2023-04-03T13:00:33;9.00;96.50
4429;DHT22;2227;47.810;8.810;2023-04-03T13:03:02;8.80;96.60
4429;DHT22;2227;47.810;8.810;2023-04-03T13:05:31;8.80;97.00
4429;DHT22;2227;47.810;8.810;2023-04-03T13:08:05;9.00;96.90
4429;DHT22;2227;47.810;8.810;2023-04-03T13:10:45;9.00;97.30
4429;DHT22;2227;47.810;8.810;2023-04-03T13:13:14;9.00;96.90
4429;DHT22;2227;47.810;8.810;2023-04-03T13:15:47;8.70;96.60
4429;DHT22;2227;47.810;8.810;2023-04-03T13:21:01;8.60;97.00
4429;DHT22;2227;47.810;8.810;2023-04-03T13:23:29;8.80;97.40
4429;DHT22;2227;47.810;8.810;2023-04-03T13:25:58;8.60;97.30
4429;DHT22;2227;47.810;8.810;2023-04-03T13:28:31;8.40;96.60
4429;DHT22;2227;47.810;8.810;2023-04-03T13:34:10;8.30;97.90
4429;DHT22;2227;47.810;8.810;2023-04-03T13:41:50;8.60;96.30
4429;DHT22;2227;47.810;8.810;2023-04-03T13:49:32;8.90;96.60
4429;DHT22;2227;47.810;8.810;2023-04-03T13:52:00;9.10;95.10
4429;DHT22;2227;47.810;8.810;2023-04-03T13:54:37;8.70;95.00
4429;DHT22;2227;47.810;8.810;2023-04-03T13:57:13;8.60;95.10
4429;DHT22;2227;47.810;8.810;2023-04-03T13:59:41;8.80;95.20
4429;DHT22;2227;47.810;8.810;2023-04-03T14:07:11;9.10;95.90
4429;DHT22;2227;47.810;8.810;2023-04-03T14:09:38;9.30;95.40
4429;DHT22;2227;47.810;8.810;2023-04-03T14:12:35;9.20;95.50
4429;DHT22;2227;47.810;8.810;2023-04-03T14:15:02;9.10;95.40
4429;DHT22;2227;47.810;8.810;2023-04-03T14:17:29;9.20;95.10
4429;DHT22;2227;47.810;8.810;2023-04-03T14:19:57;9.30;95.40
4429;DHT22;2227;47.810;8.810;2023-04-03T14:22:27;9.20;95.60
4429;DHT22;2227;47.810;8.810;2023-04-03T14:24:55;9.00;95.70
4429;DHT22;2227;47.810;8.810;2023-04-03T14:27:29;8.80;95.80
4429;DHT22;2227;47.810;8.810;2023-04-03T14:29:58;9.00;95.60
4429;DHT22;2227;47.810;8.810;2023-04-03T14:32:26;9.00;95.60
4429;DHT22;2227;47.810;8.810;2023-04-03T14:34:54;8.80;95.30
4429;DHT22;2227;47.810;8.810;2023-04-03T14:37:24;8.70;95.50
4429;DHT22;2227;47.810;8.810;2023-04-03T14:39:52;8.90;95.70
4429;DHT22;2227;47.810;8.810;2023-04-03T14:42:26;8.80;94.20
4429;DHT22;2227;47.810;8.810;2023-04-03T14:44:54;8.70;94.70
4429;DHT22;2227;47.810;8.810;2023-04-03T14:47:24;8.80;95.00
4429;DHT22;2227;47.810;8.810;2023-04-03T14:49:59;8.80;94.40
4429;DHT22;2227;47.810;8.810;2023-04-03T14:52:33;8.90;94.60
4429;DHT22;2227;47.810;8.810;2023-04-03T14:55:01;9.10;94.50
4429;DHT22;2227;47.810;8.810;2023-04-03T14:57:29;9.60;94.40
4429;DHT22;2227;47.810;8.810;2023-04-03T14:59:57;9.80;93.40
4429;DHT22;2227;47.810;8.810;2023-04-03T15:02:36;9.90;93.20
4429;DHT22;2227;47.810;8.810;2023-04-03T15:05:05;10.00;93.20
4429;DHT22;2227;47.810;8.810;2023-04-03T15:07:38;10.10;92.90
4429;DHT22;2227;47.810;8.810;2023-04-03T15:10:19;9.80;93.20
4429;DHT22;2227;47.810;8.810;2023-04-03T15:12:48;9.30;93.40
4429;DHT22;2227;47.810;8.810;2023-04-03T15:15:16;9.40;94.30
4429;DHT22;2227;47.810;8.810;2023-04-03T15:17:44;9.40;94.30
4429;DHT22;2227;47.810;8.810;2023-04-03T15:20:19;9.60;94.30
4429;DHT22;2227;47.810;8.810;2023-04-03T15:22:47;9.40;92.90
4429;DHT22;2227;47.810;8.810;2023-04-03T15:25:14;9.20;92.90
4429;DHT22;2227;47.810;8.810;2023-04-03T15:27:41;9.20;93.40
4429;DHT22;2227;47.810;8.810;2023-04-03T15:30:14;9.20;93.80
4429;DHT22;2227;47.810;8.810;2023-04-03T15:32:41;9.20;93.80
4429;DHT22;2227;47.810;8.810;2023-04-03T15:35:08;9.10;94.30
4429;DHT22;2227;47.810;8.810;2023-04-03T15:37:35;9.00;95.10
4429;DHT22;2227;47.810;8.810;2023-04-03T15:40:02;8.80;94.60
4429;DHT22;2227;47.810;8.810;2023-04-03T15:42:29;8.70;95.60
4429;DHT22;2227;47.810;8.810;2023-04-03T15:44:56;8.80;95.00
4429;DHT22;2227;47.810;8.810;2023-04-03T15:47:24;8.90;94.90
4429;DHT22;2227;47.810;8.810;2023-04-03T15:49:51;8.90;94.70
4429;DHT22;2227;47.810;8.810;2023-04-03T15:52:19;9.00;94.70
4429;DHT22;2227;47.810;8.810;2023-04-03T15:54:46;8.90;94.70
4429;DHT22;2227;47.810;8.810;2023-04-03T15:57:12;8.80;95.10
4429;DHT22;2227;47.810;8.810;2023-04-03T15:59:39;8.50;94.40
4429;DHT22;2227;47.810;8.810;2023-04-03T16:02:09;8.20;94.90
4429;DHT22;2227;47.810;8.810;2023-04-03T16:04:36;8.30;95.40
4429;DHT22;2227;47.810;8.810;2023-04-03T16:07:03;8.70;95.80
4429;DHT22;2227;47.810;8.810;2023-04-03T16:09:31;8.60;95.60
4429;DHT22;2227;47.810;8.810;2023-04-03T16:11:59;8.60;96.00
4429;DHT22;2227;47.810;8.810;2023-04-03T16:14:26;8.30;96.10
4429;DHT22;2227;47.810;8.810;2023-04-03T16:16:55;8.20;96.30
4429;DHT22;2227;47.810;8.810;2023-04-03T16:19:21;8.30;96.40
4429;DHT22;2227;47.810;8.810;2023-04-03T16:21:51;8.00;96.50
4429;DHT22;2227;47.810;8.810;2023-04-03T16:24:19;8.10;97.00
4429;DHT22;2227;47.810;8.810;2023-04-03T16:26:45;7.90;96.70
4429;DHT22;2227;47.810;8.810;2023-04-03T16:29:12;8.00;96.80
4429;DHT22;2227;47.810;8.810;2023-04-03T16:31:39;8.00;96.30
4429;DHT22;2227;47.810;8.810;2023-04-03T16:34:06;8.10;96.40
4429;DHT22;2227;47.810;8.810;2023-04-03T16:36:32;8.10;97.40
4429;DHT22;2227;47.810;8.810;2023-04-03T16:38:59;8.10;96.10
4429;DHT22;2227;47.810;8.810;2023-04-03T16:41:26;8.10;96.40
4429;DHT22;2227;47.810;8.810;2023-04-03T16:43:53;7.90;96.80
4429;DHT22;2227;47.810;8.810;2023-04-03T16:46:20;7.90;96.60
4429;DHT22;2227;47.810;8.810;2023-04-03T16:48:46;7.70;96.90
4429;DHT22;2227;47.810;8.810;2023-04-03T16:51:13;7.80;96.90
4429;DHT22;2227;47.810;8.810;2023-04-03T16:53:40;7.70;96.80
4429;DHT22;2227;47.810;8.810;2023-04-03T16:56:06;7.70;97.60
4429;DHT22;2227;47.810;8.810;2023-04-03T16:58:33;7.70;96.60
4429;DHT22;2227;47.810;8.810;2023-04-03T17:01:09;7.20;97.00
4429;DHT22;2227;47.810;8.810;2023-04-03T17:03:36;7.30;97.10
4429;DHT22;2227;47.810;8.810;2023-04-03T17:06:02;7.20;97.60
4429;DHT22;2227;47.810;8.810;2023-04-03T17:08:29;7.30;97.20
4429;DHT22;2227;47.810;8.810;2023-04-03T17:10:56;7.30;97.50
4429;DHT22;2227;47.810;8.810;2023-04-03T17:13:23;7.30;97.90
4429;DHT22;2227;47.810;8.810;2023-04-03T17:15:49;7.30;97.40
4429;DHT22;2227;47.810;8.810;2023-04-03T17:18:16;7.30;97.50
4429;DHT22;2227;47.810;8.810;2023-04-03T17:20:43;7.30;97.70
4429;DHT22;2227;47.810;8.810;2023-04-03T17:23:09;7.20;98.40
4429;DHT22;2227;47.810;8.810;2023-04-03T17:25:36;7.40;97.80
4429;DHT22;2227;47.810;8.810;2023-04-03T17:28:03;7.50;97.70
4429;DHT22;2227;47.810;8.810;2023-04-03T17:30:30;7.50;97.50
4429;DHT22;2227;47.810;8.810;2023-04-03T17:32:56;7.30;97.70
4429;DHT22;2227;47.810;8.810;2023-04-03T17:35:23;7.30;98.10
4429;DHT22;2227;47.810;8.810;2023-04-03T17:37:50;7.30;97.80
4429;DHT22;2227;47.810;8.810;2023-04-03T17:40:16;7.00;98.00
4429;DHT22;2227;47.810;8.810;2023-04-03T17:42:44;6.90;98.20
4429;DHT22;2227;47.810;8.810;2023-04-03T17:45:11;6.90;98.00
4429;DHT22;2227;47.810;8.810;2023-04-03T17:47:38;6.80;98.30
4429;DHT22;2227;47.810;8.810;2023-04-03T17:50:05;6.90;98.80
4429;DHT22;2227;47.810;8.810;2023-04-03T17:52:32;6.80;98.90
4429;DHT22;2227;47.810;8.810;2023-04-03T17:54:59;6.70;98.80
4429;DHT22;2227;47.810;8.810;2023-04-03T17:57:26;6.90;98.70
4429;DHT22;2227;47.810;8.810;2023-04-03T17:59:52;6.70;98.70
4429;DHT22;2227;47.810;8.810;2023-04-03T18:02:19;6.70;98.90
4429;DHT22;2227;47.810;8.810;2023-04-03T18:04:46;6.90;99.90
4429;DHT22;2227;47.810;8.810;2023-04-03T18:07:13;7.00;99.00
4429;DHT22;2227;47.810;8.810;2023-04-03T18:09:39;7.00;99.00
4429;DHT22;2227;47.810;8.810;2023-04-03T18:12:08;6.80;99.50
4429;DHT22;2227;47.810;8.810;2023-04-03T18:14:36;6.50;99.70
4429;DHT22;2227;47.810;8.810;2023-04-03T18:17:03;6.70;99.90
4429;DHT22;2227;47.810;8.810;2023-04-03T18:19:30;6.70;99.90
4429;DHT22;2227;47.810;8.810;2023-04-03T18:22:01;6.80;99.60
4429;DHT22;2227;47.810;8.810;2023-04-03T18:24:31;6.90;99.20
4429;DHT22;2227;47.810;8.810;2023-04-03T18:27:08;6.70;98.80
4429;DHT22;2227;47.810;8.810;2023-04-03T18:29:37;6.70;98.60
4429;DHT22;2227;47.810;8.810;2023-04-03T18:32:06;6.80;98.30
4429;DHT22;2227;47.810;8.810;2023-04-03T18:34:34;6.80;98.20
4429;DHT22;2227;47.810;8.810;2023-04-03T18:37:01;6.40;98.50
4429;DHT22;2227;47.810;8.810;2023-04-03T18:39:28;6.20;98.20
4429;DHT22;2227;47.810;8.810;2023-04-03T18:41:57;6.30;98.20
4429;DHT22;2227;47.810;8.810;2023-04-03T18:44:26;6.30;98.10
4429;DHT22;2227;47.810;8.810;2023-04-03T18:46:53;6.00;98.10
4429;DHT22;2227;47.810;8.810;2023-04-03T18:49:22;5.90;98.20
4429;DHT22;2227;47.810;8.810;2023-04-03T18:51:48;6.00;98.50
4429;DHT22;2227;47.810;8.810;2023-04-03T18:54:15;5.80;98.50
4429;DHT22;2227;47.810;8.810;2023-04-03T18:56:42;5.90;98.50
4429;DHT22;2227;47.810;8.810;2023-04-03T18:59:08;6.00;98.60
4429;DHT22;2227;47.810;8.810;2023-04-03T19:01:35;5.80;98.90
4429;DHT22;2227;47.810;8.810;2023-04-03T19:04:03;5.80;99.00
4429;DHT22;2227;47.810;8.810;2023-04-03T19:06:31;5.90;99.40
4429;DHT22;2227;47.810;8.810;2023-04-03T19:08:58;5.80;99.10
4429;DHT22;2227;47.810;8.810;2023-04-03T19:11:25;5.70;99.30
4429;DHT22;2227;47.810;8.810;2023-04-03T19:13:56;5.70;99.40
4429;DHT22;2227;47.810;8.810;2023-04-03T19:16:39;5.70;99.30
4429;DHT22;2227;47.810;8.810;2023-04-03T19:19:06;5.70;99.10
4429;DHT22;2227;47.810;8.810;2023-04-03T19:21:33;5.70;99.10
4429;DHT22;2227;47.810;8.810;2023-04-03T19:24:03;5.80;99.10
4429;DHT22;2227;47.810;8.810;2023-04-03T19:26:30;5.70;98.90
4429;DHT22;2227;47.810;8.810;2023-04-03T19:28:57;5.70;98.80
4429;DHT22;2227;47.810;8.810;2023-04-03T19:31:24;5.50;98.80
4429;DHT22;2227;47.810;8.810;2023-04-03T19:33:50;5.50;99.10
4429;DHT22;2227;47.810;8.810;2023-04-03T19:36:17;5.50;98.90
4429;DHT22;2227;47.810;8.810;2023-04-03T19:38:44;5.50;98.90
4429;DHT22;2227;47.810;8.810;2023-04-03T19:41:14;5.60;99.00
4429;DHT22;2227;47.810;8.810;2023-04-03T19:43:43;5.50;98.70
4429;DHT22;2227;47.810;8.810;2023-04-03T19:46:10;5.60;98.70
4429;DHT22;2227;47.810;8.810;2023-04-03T19:48:37;5.70;98.50
4429;DHT22;2227;47.810;8.810;2023-04-03T19:51:04;5.70;98.70
4429;DHT22;2227;47.810;8.810;2023-04-03T19:53:31;5.60;98.20
4429;DHT22;2227;47.810;8.810;2023-04-03T19:55:59;5.50;98.00
4429;DHT22;2227;47.810;8.810;2023-04-03T19:58:26;5.40;97.90
4429;DHT22;2227;47.810;8.810;2023-04-03T20:00:56;5.30;98.10
4429;DHT22;2227;47.810;8.810;2023-04-03T20:03:23;5.00;98.40
4429;DHT22;2227;47.810;8.810;2023-04-03T20:05:50;5.00;98.50
4429;DHT22;2227;47.810;8.810;2023-04-03T20:08:17;5.10;98.60
4429;DHT22;2227;47.810;8.810;2023-04-03T20:10:44;5.20;98.40
4429;DHT22;2227;47.810;8.810;2023-04-03T20:13:11;5.20;98.50
4429;DHT22;2227;47.810;8.810;2023-04-03T20:15:42;5.00;98.60
4429;DHT22;2227;47.810;8.810;2023-04-03T20:18:12;5.10;99.00
4429;DHT22;2227;47.810;8.810;2023-04-03T20:20:55;5.20;98.60
4429;DHT22;2227;47.810;8.810;2023-04-03T20:23:22;5.10;98.60
4429;DHT22;2227;47.810;8.810;2023-04-03T20:25:50;5.00;98.70
4429;DHT22;2227;47.810;8.810;2023-04-03T20:28:35;5.00;98.50
4429;DHT22;2227;47.810;8.810;2023-04-03T20:31:03;5.10;98.60
4429;DHT22;2227;47.810;8.810;2023-04-03T20:33:30;4.90;98.00
4429;DHT22;2227;47.810;8.810;2023-04-03T20:35:57;4.70;98.30
4429;DHT22;2227;47.810;8.810;2023-04-03T20:38:24;4.50;98.80
4429;DHT22;2227;47.810;8.810;2023-04-03T20:40:51;4.60;98.70
4429;DHT22;2227;47.810;8.810;2023-04-03T20:43:18;4.50;98.40
4429;DHT22;2227;47.810;8.810;2023-04-03T20:45:47;4.40;98.90
4429;DHT22;2227;47.810;8.810;2023-04-03T20:48:14;4.40;98.90
4429;DHT22;2227;47.810;8.810;2023-04-03T20:50:42;4.50;98.70
4429;DHT22;2227;47.810;8.810;2023-04-03T20:53:11;4.40;98.80
4429;DHT22;2227;47.810;8.810;2023-04-03T20:55:38;4.50;98.60
4429;DHT22;2227;47.810;8.810;2023-04-03T20:58:06;4.40;98.50
4429;DHT22;2227;47.810;8.810;2023-04-03T21:00:33;4.40;98.70
4429;DHT22;2227;47.810;8.810;2023-04-03T21:03:02;4.30;98.80
4429;DHT22;2227;47.810;8.810;2023-04-03T21:05:29;4.50;98.70
4429;DHT22;2227;47.810;8.810;2023-04-03T21:19:41;4.20;99.70
4429;DHT22;2227;47.810;8.810;2023-04-03T21:22:12;4.30;99.30
4429;DHT22;2227;47.810;8.810;2023-04-03T21:24:39;4.20;99.00
4429;DHT22;2227;47.810;8.810;2023-04-03T21:27:06;4.30;99.00
4429;DHT22;2227;47.810;8.810;2023-04-03T21:29:33;4.20;98.80
4429;DHT22;2227;47.810;8.810;2023-04-03T21:32:00;4.00;99.00
4429;DHT22;2227;47.810;8.810;2023-04-03T21:34:29;3.90;99.20
4429;DHT22;2227;47.810;8.810;2023-04-03T21:37:03;4.10;98.90
4429;DHT22;2227;47.810;8.810;2023-04-03T21:39:31;4.10;98.90
4429;DHT22;2227;47.810;8.810;2023-04-03T21:41:58;4.20;98.90
4429;DHT22;2227;47.810;8.810;2023-04-03T21:44:25;4.10;98.70
4429;DHT22;2227;47.810;8.810;2023-04-03T21:46:54;4.00;98.90
4429;DHT22;2227;47.810;8.810;2023-04-03T21:49:23;4.00;99.10
4429;DHT22;2227;47.810;8.810;2023-04-03T21:51:49;4.00;98.90
4429;DHT22;2227;47.810;8.810;2023-04-03T21:54:18;3.80;99.10
4429;DHT22;2227;47.810;8.810;2023-04-03T21:56:45;3.70;99.20
4429;DHT22;2227;47.810;8.810;2023-04-03T21:59:17;3.80;99.20
4429;DHT22;2227;47.810;8.810;2023-04-03T22:01:44;3.90;99.20